WetterOnline ( https://www.wetteronline.de )

Wetter aktuell Luckenwalde

Aktuelles Wetter: Potsdam (100m)

6-stündlich | Neueste Meldungen
Ortszeit Temperatur Wetter
Mi, 22.01. 19:00 5.0° C bedeckt
Mi, 22.01. 13:00 4.2° C Sprühregen
Mi, 22.01. 7:00 2.1° C bedeckt
Mi, 22.01. 1:00 2.1° C bedeckt
Di, 21.01. 19:00 1.6° C leicht bewölkt
Di, 21.01. 13:00 5.2° C fast wolkenlos
Di, 21.01. 7:00 -0.8° C wolkenlos
Di, 21.01. 1:00 -0.5° C wolkenlos
Ortszeit Temperatur Wetter
Do, 23.01. 0:30 1.9° C wolkenlos
Do, 23.01. 0:20 1.9° C wolkenlos
Do, 23.01. 0:10 2.2° C wolkenlos
Do, 23.01. 0:00 2.2° C wolkenlos
Mi, 22.01. 23:50 2.2° C wolkenlos
Mi, 22.01. 23:40 2.3° C leicht bewölkt
Mi, 22.01. 23:30 2.7° C wolkig
Mi, 22.01. 23:00 3.4° C bewölkt
Mi, 22.01. 22:30 3.8° C bewölkt
Mi, 22.01. 22:00 4.2° C bedeckt
Mi, 22.01. 21:30 4.6° C bedeckt
Ortszeit Relative Feuchte Sichtweite
Mi, 22.01. 19:00 83% 55 km
Mi, 22.01. 13:00 97% 4.5 km
Mi, 22.01. 7:00 97% 4.5 km
Mi, 22.01. 1:00 86% 13 km
Di, 21.01. 19:00 85% 30 km
Di, 21.01. 13:00 66% 40 km
Di, 21.01. 7:00 94% 28 km
Di, 21.01. 1:00 96% 14 km
Ortszeit Relative Feuchte Sichtweite
Do, 23.01. 0:30 97% 12 km
Do, 23.01. 0:20 97% -
Do, 23.01. 0:10 96% -
Do, 23.01. 0:00 96% 13 km
Mi, 22.01. 23:50 96% -
Mi, 22.01. 23:40 95% -
Mi, 22.01. 23:30 94% 22 km
Mi, 22.01. 23:00 91% 28 km
Mi, 22.01. 22:30 88% 45 km
Mi, 22.01. 22:00 86% 50 km
Mi, 22.01. 21:30 83% 50 km
Ortszeit Niederschlagsmenge Niederschlagsart
Mi, 22.01. 19:00 0.1 l/m2 in 12 Std. Sprühregen
Mi, 22.01. 13:00 0.1 l/m2 in 6 Std. Sprühregen
Mi, 22.01. 7:00 0.1 l/m2 in 12 Std. Sprühregen
Mi, 22.01. 1:00 0.0 l/m2 in 6 Std. -
Di, 21.01. 19:00 0.0 l/m2 in 12 Std. -
Di, 21.01. 13:00 0.0 l/m2 in 6 Std. -
Di, 21.01. 7:00 0.0 l/m2 in 12 Std. -
Di, 21.01. 1:00 0.0 l/m2 in 6 Std. -
Ortszeit Niederschlagsmenge Niederschlagsart
Do, 23.01. 0:30 0.0 l/m2 in 1 Std. -
Do, 23.01. 0:20 keine Meldung -
Do, 23.01. 0:10 keine Meldung -
Do, 23.01. 0:00 0.0 l/m2 in 1 Std. -
Mi, 22.01. 23:50 keine Meldung -
Mi, 22.01. 23:40 keine Meldung -
Mi, 22.01. 23:30 0.0 l/m2 in 1 Std. -
Mi, 22.01. 23:00 0.0 l/m2 in 1 Std. -
Mi, 22.01. 22:30 0.0 l/m2 in 1 Std. -
Mi, 22.01. 22:00 0.0 l/m2 in 1 Std. -
Mi, 22.01. 21:30 0.0 l/m2 in 1 Std. -
Ortszeit Stärke Spitze Richtung
km/h Bft. km/h Grad Sektor
Mi, 22.01. 19:00 11 2 36 290° W
Mi, 22.01. 13:00 20 4 39 280° W
Mi, 22.01. 7:00 18 3 40 260° W
Mi, 22.01. 1:00 22 4 36 260° W
Di, 21.01. 19:00 22 4 36 240° SW
Di, 21.01. 13:00 18 3 36 260° W
Di, 21.01. 7:00 22 4 36 230° SW
Di, 21.01. 1:00 19 3 28 230° SW
Ortszeit Stärke Spitze Richtung
km/h Bft. km/h Grad Sektor
Do, 23.01. 0:30 13 3 17 270° W
Do, 23.01. 0:20 13 3 - 270° W
Do, 23.01. 0:10 13 3 - 270° W
Do, 23.01. 0:00 13 3 15 270° W
Mi, 22.01. 23:50 13 3 - 270° W
Mi, 22.01. 23:40 11 2 - 270° W
Mi, 22.01. 23:30 11 2 14 260° W
Mi, 22.01. 23:00 9 2 15 260° W
Mi, 22.01. 22:30 9 2 13 250° W
Mi, 22.01. 22:00 9 2 17 260° W
Mi, 22.01. 21:30 7 2 14 290° W
Ortszeit Untergrenze Bedeckung Gattung
total tief tief mittel hoch
Mi, 22.01. 19:00 750 m 8/8 8/8 - - -
Mi, 22.01. 13:00 120 m 8/8 7/8 St - -
Mi, 22.01. 7:00 120 m 8/8 7/8 St - -
Mi, 22.01. 1:00 360 m 8/8 8/8 - - -
Di, 21.01. 19:00 10500 m 5/8 0/8 - - -
Di, 21.01. 13:00 3000 m 1/8 1/8 - Ac Ci
Di, 21.01. 7:00 - 0/8 0/8 - - -
Di, 21.01. 1:00 - 0/8 0/8 - - -
Ortszeit Bedeckungsgrad in Achtel und Wolkenuntergrenze
Do, 23.01. 0:30 keine Wolken
Do, 23.01. 0:20 keine Wolken
Do, 23.01. 0:10 keine Wolken
Do, 23.01. 0:00 keine Wolken
Mi, 22.01. 23:50 keine Wolken
Mi, 22.01. 23:40 2(750m)
Mi, 22.01. 23:30 6(750m)
Mi, 22.01. 23:00 7(720m)
Mi, 22.01. 22:30 7(720m)
Mi, 22.01. 22:00 8(720m)
Mi, 22.01. 21:30 8(690m)
Ortszeit Luftdruck NN (hPa) Tendenz (hPa in 3 Std.)
Mi, 22.01. 19:00 1033 + 1,9
Mi, 22.01. 13:00 1031 - 0,3
Mi, 22.01. 7:00 1032 - 1,3
Mi, 22.01. 1:00 1035 - 1,3
Di, 21.01. 19:00 1037 - 1,7
Di, 21.01. 13:00 1040 - 0,8
Di, 21.01. 7:00 1042 - 1,1
Di, 21.01. 1:00 1044 - 1,3
Ortszeit Luftdruck NN (hPa) Tendenz (hPa in 3 Std.)
Do, 23.01. 0:30 1036 + 1,0
Do, 23.01. 0:20 1036 keine Meldung
Do, 23.01. 0:10 1035 keine Meldung
Do, 23.01. 0:00 1035 + 0,6
Mi, 22.01. 23:50 1035 keine Meldung
Mi, 22.01. 23:40 1035 keine Meldung
Mi, 22.01. 23:30 1035 + 0,9
Mi, 22.01. 23:00 1035 + 1,1
Mi, 22.01. 22:30 1035 + 1,4
Mi, 22.01. 22:00 1035 + 1,4
Mi, 22.01. 21:30 1034 + 1,5
Ortszeit Schneehöhe (cm)
Mi, 22.01. 19:00 0
Mi, 22.01. 13:00 0
Mi, 22.01. 7:00 0
Mi, 22.01. 1:00 0
Di, 21.01. 19:00 0
Di, 21.01. 13:00 0
Di, 21.01. 7:00 0
Di, 21.01. 1:00 0
Ortszeit Schneehöhe (cm)
Do, 23.01. 0:30 0
Do, 23.01. 0:20 0
Do, 23.01. 0:10 0
Do, 23.01. 0:00 0
Mi, 22.01. 23:50 0
Mi, 22.01. 23:40 0
Mi, 22.01. 23:30 0
Mi, 22.01. 23:00 0
Mi, 22.01. 22:30 0
Mi, 22.01. 22:00 0
Mi, 22.01. 21:30 0
Link zu dieser Seite / Seite empfehlen

Das Wetter in ...